Time;durP1;ratioP1;P1;durP2;ratioP2;P2;SDS_P1;SDS_P2;PMS_P1;PMS_P2;Temp;Humidity;BMP_temperature;BMP_pressure;BME280_temperature;BME280_humidity;BME280_pressure;Samples;Min_cycle;Max_cycle;Signal;HPM_P1;HPM_P2
2022/09/06 00:01:09;;;;;;;6.82;6.00;;;;;;;;;;5096401;28;20465;-80
2022/09/06 00:03:34;;;;;;;6.97;6.35;;;;;;;;;;5106766;28;20042;-78
2022/09/06 00:06:04;;;;;;;8.48;6.97;;;;;;;;;;5101888;28;20459;-78
2022/09/06 00:08:30;;;;;;;7.10;6.50;;;;;;;;;;5114807;28;20027;-78
2022/09/06 00:10:56;;;;;;;8.35;7.55;;;;;;;;;;5103223;28;20023;-78
2022/09/06 00:13:21;;;;;;;7.55;6.85;;;;;;;;;;5114233;28;20024;-78
2022/09/06 00:15:47;;;;;;;6.90;6.22;;;;;;;;;;5104147;28;20050;-77
2022/09/06 00:18:12;;;;;;;10.57;6.93;;;;;;;;;;5103182;28;20024;-78
2022/09/06 00:20:40;;;;;;;6.97;6.25;;;;;;;;;;5113147;28;20061;-77
2022/09/06 00:23:06;;;;;;;8.10;7.05;;;;;;;;;;5088112;28;20028;-78
2022/09/06 00:25:32;;;;;;;6.95;6.25;;;;;;;;;;5110824;28;20103;-78
2022/09/06 00:27:58;;;;;;;7.18;5.95;;;;;;;;;;5115040;28;20114;-78
2022/09/06 00:30:24;;;;;;;7.38;6.43;;;;;;;;;;5113323;28;20361;-76
2022/09/06 00:32:49;;;;;;;6.85;6.13;;;;;;;;;;5102072;27;20028;-76
2022/09/06 00:35:15;;;;;;;6.80;6.10;;;;;;;;;;5111894;27;20445;-77
2022/09/06 00:37:40;;;;;;;7.22;6.47;;;;;;;;;;5118144;27;20023;-76
2022/09/06 00:40:06;;;;;;;9.20;6.57;;;;;;;;;;5106316;27;20047;-76
2022/09/06 00:42:32;;;;;;;7.88;6.85;;;;;;;;;;5113092;27;20455;-77
2022/09/06 00:44:57;;;;;;;8.63;6.97;;;;;;;;;;5107494;27;20031;-76
2022/09/06 00:47:23;;;;;;;7.20;6.50;;;;;;;;;;5114938;27;20027;-76
2022/09/06 00:49:50;;;;;;;7.15;6.45;;;;;;;;;;5110094;27;20335;-76
2022/09/06 00:52:17;;;;;;;7.50;6.32;;;;;;;;;;5106665;27;20019;-77
2022/09/06 00:54:42;;;;;;;7.35;6.28;;;;;;;;;;5116329;27;20128;-76
2022/09/06 00:57:08;;;;;;;7.13;6.43;;;;;;;;;;5115526;27;20131;-77
2022/09/06 00:59:35;;;;;;;7.32;6.57;;;;;;;;;;5116682;27;20030;-76
2022/09/06 01:02:01;;;;;;;7.80;6.60;;;;;;;;;;5103827;27;20094;-77
2022/09/06 01:04:28;;;;;;;7.15;6.55;;;;;;;;;;5111404;27;20164;-78
2022/09/06 01:06:53;;;;;;;7.75;6.90;;;;;;;;;;5108378;27;20023;-75
2022/09/06 01:09:25;;;;;;;8.32;6.63;;;;;;;;;;5116899;27;20034;-75
2022/09/06 01:11:57;;;;;;;9.15;6.22;;;;;;;;;;5114094;27;20046;-74
2022/09/06 01:14:25;;;;;;;7.30;6.28;;;;;;;;;;5111472;27;20524;-75
2022/09/06 01:16:57;;;;;;;6.72;6.10;;;;;;;;;;5108892;27;20027;-77
2022/09/06 01:19:41;;;;;;;6.55;5.95;;;;;;;;;;5118959;27;20539;-80
2022/09/06 01:22:15;;;;;;;6.47;5.88;;;;;;;;;;5107729;27;20026;-79
2022/09/06 01:25:04;;;;;;;6.88;6.03;;;;;;;;;;5110528;27;20026;-74
2022/09/06 01:27:32;;;;;;;6.72;6.03;;;;;;;;;;5104767;27;20498;-75
2022/09/06 01:30:04;;;;;;;7.32;6.28;;;;;;;;;;5113212;27;20475;-77
2022/09/06 01:32:35;;;;;;;6.45;5.75;;;;;;;;;;5106305;27;20080;-75
2022/09/06 01:35:09;;;;;;;6.70;5.93;;;;;;;;;;5096186;27;20335;-77
2022/09/06 01:37:35;;;;;;;6.65;6.05;;;;;;;;;;5114304;27;20054;-78
2022/09/06 01:40:00;;;;;;;6.55;5.97;;;;;;;;;;5107025;27;20393;-76
2022/09/06 01:42:29;;;;;;;9.20;6.07;;;;;;;;;;5111269;27;20406;-77
2022/09/06 01:45:00;;;;;;;8.60;6.65;;;;;;;;;;5109421;27;20023;-75
2022/09/06 01:47:25;;;;;;;9.63;6.18;;;;;;;;;;5112375;27;20399;-77
2022/09/06 01:49:50;;;;;;;8.02;6.13;;;;;;;;;;5109276;27;20114;-78
2022/09/06 01:52:32;;;;;;;8.90;6.18;;;;;;;;;;5112492;27;20484;-77
2022/09/06 01:55:16;;;;;;;8.30;6.00;;;;;;;;;;5110884;27;20020;-76
2022/09/06 01:57:41;;;;;;;11.93;5.75;;;;;;;;;;5106077;27;20029;-79
2022/09/06 02:00:08;;;;;;;6.63;6.07;;;;;;;;;;5113870;27;20024;-77
2022/09/06 02:02:33;;;;;;;7.47;6.07;;;;;;;;;;5115478;27;20426;-82
2022/09/06 02:05:01;;;;;;;6.75;6.07;;;;;;;;;;5112969;27;20042;-80
2022/09/06 02:07:31;;;;;;;7.13;5.60;;;;;;;;;;5112370;27;20034;-74
2022/09/06 02:10:13;;;;;;;6.47;5.88;;;;;;;;;;5113790;27;20038;-77
2022/09/06 02:12:40;;;;;;;6.80;6.05;;;;;;;;;;5102040;27;20462;-77
2022/09/06 02:15:10;;;;;;;7.15;6.45;;;;;;;;;;5112901;27;20030;-76
2022/09/06 02:17:35;;;;;;;;;;;;;;;;;;5116817;27;20030;-78
2022/09/06 02:20:21;;;;;;;6.37;5.77;;;;;;;;;;5114479;27;19949;-77
2022/09/06 02:22:46;;;;;;;7.82;6.55;;;;;;;;;;5116720;27;20567;-77
2022/09/06 02:25:19;;;;;;;7.13;6.32;;;;;;;;;;5091426;27;20027;-79
2022/09/06 02:27:45;;;;;;;7.30;6.18;;;;;;;;;;5110701;27;20446;-78
2022/09/06 02:30:10;;;;;;;8.02;6.72;;;;;;;;;;5119572;27;20024;-77
2022/09/06 02:32:42;;;;;;;7.15;6.45;;;;;;;;;;5109274;27;20030;-79
2022/09/06 02:35:11;;;;;;;6.90;6.35;;;;;;;;;;5106893;27;20023;-79
2022/09/06 02:37:37;;;;;;;9.68;7.65;;;;;;;;;;5110082;27;20311;-74
2022/09/06 02:40:02;;;;;;;7.15;6.43;;;;;;;;;;5109485;27;20421;-77
2022/09/06 02:42:28;;;;;;;7.43;6.75;;;;;;;;;;5109933;27;20043;-75
2022/09/06 02:44:53;;;;;;;7.38;6.70;;;;;;;;;;5114659;27;20015;-75
2022/09/06 02:47:19;;;;;;;7.28;6.43;;;;;;;;;;5112478;27;20035;-74
2022/09/06 02:49:44;;;;;;;7.32;6.63;;;;;;;;;;5117359;27;20038;-77
2022/09/06 02:52:10;;;;;;;8.98;7.13;;;;;;;;;;5105428;27;20095;-73
2022/09/06 02:54:35;;;;;;;7.35;6.65;;;;;;;;;;5114070;27;20428;-75
2022/09/06 02:57:00;;;;;;;8.13;7.43;;;;;;;;;;5085089;27;20023;-76
2022/09/06 02:59:26;;;;;;;7.78;7.07;;;;;;;;;;5113097;27;20028;-75
2022/09/06 03:01:52;;;;;;;8.90;7.10;;;;;;;;;;5112106;27;20397;-75
2022/09/06 03:04:17;;;;;;;7.72;7.07;;;;;;;;;;5117399;27;20071;-76
2022/09/06 03:06:42;;;;;;;8.02;7.20;;;;;;;;;;5101012;27;20027;-76
2022/09/06 03:09:09;;;;;;;7.15;6.53;;;;;;;;;;5115052;27;20110;-76
2022/09/06 03:11:34;;;;;;;7.38;6.68;;;;;;;;;;5100172;27;20102;-77
2022/09/06 03:14:00;;;;;;;6.90;6.30;;;;;;;;;;5111789;27;20511;-79
2022/09/06 03:16:25;;;;;;;7.60;6.85;;;;;;;;;;5113277;27;20325;-78
2022/09/06 03:18:51;;;;;;;6.60;6.00;;;;;;;;;;5111073;27;20043;-77
2022/09/06 03:21:16;;;;;;;6.93;6.22;;;;;;;;;;5108467;28;20035;-78
2022/09/06 03:23:41;;;;;;;11.85;6.80;;;;;;;;;;5112016;27;20370;-76
2022/09/06 03:26:07;;;;;;;7.15;6.50;;;;;;;;;;5105314;28;20054;-76
2022/09/06 03:28:33;;;;;;;7.47;6.30;;;;;;;;;;5110198;28;20030;-76
2022/09/06 03:30:58;;;;;;;7.30;6.70;;;;;;;;;;5113834;28;20441;-76
2022/09/06 03:33:24;;;;;;;7.03;6.32;;;;;;;;;;5113836;28;20092;-76
2022/09/06 03:35:51;;;;;;;6.95;6.30;;;;;;;;;;5114422;28;20032;-77
2022/09/06 03:38:16;;;;;;;6.90;6.20;;;;;;;;;;5112652;28;20438;-78
2022/09/06 03:40:43;;;;;;;7.28;6.57;;;;;;;;;;5111550;28;20118;-79
2022/09/06 03:43:08;;;;;;;7.47;6.75;;;;;;;;;;5116564;28;20065;-77
2022/09/06 03:45:34;;;;;;;7.22;6.53;;;;;;;;;;5102494;28;20026;-75
2022/09/06 03:47:59;;;;;;;7.32;6.63;;;;;;;;;;5106966;28;20028;-75
2022/09/06 03:50:24;;;;;;;7.50;6.82;;;;;;;;;;5116190;28;20365;-77
2022/09/06 03:52:50;;;;;;;8.85;7.70;;;;;;;;;;5106717;28;20031;-77
2022/09/06 03:55:15;;;;;;;7.25;6.55;;;;;;;;;;5113390;28;20469;-78
2022/09/06 03:57:40;;;;;;;7.95;7.18;;;;;;;;;;5113623;28;20015;-81
2022/09/06 04:00:06;;;;;;;8.40;7.22;;;;;;;;;;5112684;28;20426;-78
2022/09/06 04:02:31;;;;;;;7.38;6.65;;;;;;;;;;5102923;28;20038;-77
2022/09/06 04:04:57;;;;;;;7.60;6.90;;;;;;;;;;5113774;28;20035;-77
2022/09/06 04:07:22;;;;;;;8.45;7.15;;;;;;;;;;5115284;27;20026;-76
2022/09/06 04:09:48;;;;;;;7.60;6.80;;;;;;;;;;5113828;27;20441;-78
2022/09/06 04:12:13;;;;;;;8.88;7.18;;;;;;;;;;5108115;27;21213;-73
2022/09/06 04:14:39;;;;;;;7.50;6.53;;;;;;;;;;5104681;27;20015;-75
2022/09/06 04:17:04;;;;;;;6.75;6.05;;;;;;;;;;5108257;27;20114;-77
2022/09/06 04:19:30;;;;;;;8.60;6.03;;;;;;;;;;5118507;27;20034;-73
2022/09/06 04:21:55;;;;;;;7.80;5.85;;;;;;;;;;5119258;27;20075;-75
2022/09/06 04:24:20;;;;;;;7.85;6.13;;;;;;;;;;5117698;27;20136;-78
2022/09/06 04:26:46;;;;;;;6.60;5.78;;;;;;;;;;5117905;27;20034;-76
2022/09/06 04:29:11;;;;;;;8.23;6.80;;;;;;;;;;5120079;27;20023;-76
2022/09/06 04:31:37;;;;;;;8.85;6.72;;;;;;;;;;5119003;27;20053;-78
2022/09/06 04:34:02;;;;;;;18.40;10.27;;;;;;;;;;5118770;27;20068;-77
2022/09/06 04:36:28;;;;;;;16.27;10.80;;;;;;;;;;5115482;27;20031;-75
2022/09/06 04:38:54;;;;;;;113.78;74.05;;;;;;;;;;5102503;27;20068;-74
2022/09/06 04:41:20;;;;;;;87.43;55.30;;;;;;;;;;5099746;27;20399;-72
2022/09/06 04:43:46;;;;;;;62.08;40.58;;;;;;;;;;5100602;27;20044;-73
2022/09/06 04:46:11;;;;;;;30.73;23.55;;;;;;;;;;5099065;27;20035;-74
2022/09/06 04:48:36;;;;;;;25.25;16.85;;;;;;;;;;5097767;27;20035;-73
2022/09/06 04:51:02;;;;;;;37.50;23.15;;;;;;;;;;5109891;27;20359;-73
2022/09/06 04:53:27;;;;;;;12.18;9.00;;;;;;;;;;5097603;27;20052;-73
2022/09/06 04:55:55;;;;;;;11.52;7.50;;;;;;;;;;5096644;27;20031;-74
2022/09/06 04:58:20;;;;;;;12.10;7.32;;;;;;;;;;5096159;27;20024;-72
2022/09/06 05:00:46;;;;;;;10.13;7.18;;;;;;;;;;5111431;27;20449;-71
2022/09/06 05:03:11;;;;;;;9.10;6.60;;;;;;;;;;5116145;27;20083;-71
2022/09/06 05:05:37;;;;;;;8.07;7.30;;;;;;;;;;5119036;27;20023;-71
2022/09/06 05:08:02;;;;;;;8.43;7.45;;;;;;;;;;5100865;27;20031;-73
2022/09/06 05:10:27;;;;;;;8.20;7.40;;;;;;;;;;5119156;27;20019;-73
2022/09/06 05:12:53;;;;;;;8.52;7.72;;;;;;;;;;5120843;27;20030;-71
2022/09/06 05:15:19;;;;;;;9.48;8.57;;;;;;;;;;5098310;27;20061;-77
2022/09/06 05:17:44;;;;;;;10.45;9.38;;;;;;;;;;5095876;27;20024;-72
2022/09/06 05:20:10;;;;;;;10.45;9.45;;;;;;;;;;5097574;27;20061;-77
2022/09/06 05:22:36;;;;;;;9.93;8.93;;;;;;;;;;5095741;27;20848;-74
2022/09/06 05:25:01;;;;;;;11.75;9.63;;;;;;;;;;5096426;27;20122;-73
2022/09/06 05:27:27;;;;;;;10.20;8.57;;;;;;;;;;5100944;27;20095;-71
2022/09/06 05:29:52;;;;;;;11.60;9.63;;;;;;;;;;5121652;27;20094;-76
2022/09/06 05:32:18;;;;;;;13.05;8.77;;;;;;;;;;5116519;27;20106;-75
2022/09/06 05:34:43;;;;;;;13.52;10.10;;;;;;;;;;5118786;27;20479;-74
2022/09/06 05:37:08;;;;;;;8.75;7.90;;;;;;;;;;5119062;27;20031;-73
2022/09/06 05:39:34;;;;;;;10.18;8.55;;;;;;;;;;5091834;27;20320;-73
2022/09/06 05:42:00;;;;;;;11.15;9.13;;;;;;;;;;5093066;27;20042;-74
2022/09/06 05:44:25;;;;;;;42.92;36.30;;;;;;;;;;5113065;27;20516;-72
2022/09/06 05:46:51;;;;;;;49.90;44.67;;;;;;;;;;5119732;27;20360;-73
2022/09/06 05:49:16;;;;;;;41.25;36.97;;;;;;;;;;5115667;27;20033;-73
2022/09/06 05:51:42;;;;;;;27.00;24.13;;;;;;;;;;5116344;27;20023;-73
2022/09/06 05:54:09;;;;;;;21.38;19.17;;;;;;;;;;5117502;27;20040;-76
2022/09/06 05:56:34;;;;;;;25.30;22.73;;;;;;;;;;5113897;27;20099;-72
2022/09/06 05:59:00;;;;;;;24.13;21.58;;;;;;;;;;5118791;27;20027;-72
2022/09/06 06:01:26;;;;;;;19.70;17.75;;;;;;;;;;5118581;27;20031;-73
2022/09/06 06:03:56;;;;;;;19.27;16.77;;;;;;;;;;5115189;27;20019;-75
2022/09/06 06:06:22;;;;;;;16.02;13.95;;;;;;;;;;5117515;27;20095;-73
2022/09/06 06:08:47;;;;;;;18.67;14.75;;;;;;;;;;5117065;27;20042;-75
2022/09/06 06:11:13;;;;;;;22.20;12.50;;;;;;;;;;5116934;27;20027;-72
2022/09/06 06:13:38;;;;;;;33.47;12.07;;;;;;;;;;5113869;27;20031;-72
2022/09/06 06:16:14;;;;;;;17.08;11.05;;;;;;;;;;5118910;27;20019;-72
2022/09/06 06:18:39;;;;;;;18.00;16.30;;;;;;;;;;5117908;27;20410;-71
2022/09/06 06:21:10;;;;;;;18.40;16.67;;;;;;;;;;5119450;27;20050;-71
2022/09/06 06:23:36;;;;;;;16.92;14.73;;;;;;;;;;5115079;27;20442;-71
2022/09/06 06:26:02;;;;;;;15.52;13.98;;;;;;;;;;5117406;27;20033;-79
2022/09/06 06:28:27;;;;;;;14.88;13.25;;;;;;;;;;5117336;27;20027;-74
2022/09/06 06:30:53;;;;;;;12.98;11.57;;;;;;;;;;5116976;27;20447;-73
2022/09/06 06:33:19;;;;;;;15.38;10.15;;;;;;;;;;5114002;27;20049;-73
2022/09/06 06:36:00;;;;;;;11.18;10.13;;;;;;;;;;5116289;27;20027;-74
2022/09/06 06:38:30;;;;;;;11.15;10.15;;;;;;;;;;5116813;27;20023;-74
2022/09/06 06:40:55;;;;;;;13.95;9.32;;;;;;;;;;5117451;27;20032;-76
2022/09/06 06:43:20;;;;;;;10.02;9.07;;;;;;;;;;5118019;27;20439;-74
2022/09/06 06:45:49;;;;;;;11.45;9.90;;;;;;;;;;5117728;27;20031;-72
2022/09/06 06:48:15;;;;;;;13.00;10.80;;;;;;;;;;5117058;27;20027;-73
2022/09/06 06:50:40;;;;;;;20.00;18.02;;;;;;;;;;5117938;27;20023;-72
2022/09/06 06:53:05;;;;;;;18.15;16.33;;;;;;;;;;5115543;27;20033;-75
2022/09/06 06:55:31;;;;;;;20.85;18.67;;;;;;;;;;5117683;27;20040;-76
2022/09/06 06:57:58;;;;;;;15.60;13.63;;;;;;;;;;5116842;27;20019;-76
2022/09/06 07:00:23;;;;;;;15.73;13.10;;;;;;;;;;5119143;27;20030;-74
2022/09/06 07:02:49;;;;;;;11.70;10.43;;;;;;;;;;5117236;27;20027;-72
2022/09/06 07:05:14;;;;;;;11.55;9.18;;;;;;;;;;5118291;27;21593;-74
2022/09/06 07:07:40;;;;;;;38.45;23.83;;;;;;;;;;5117183;27;20031;-73
2022/09/06 07:10:05;;;;;;;24.02;13.20;;;;;;;;;;5115653;27;20024;-73
2022/09/06 07:12:31;;;;;;;13.35;9.02;;;;;;;;;;5118575;27;20023;-76
2022/09/06 07:14:56;;;;;;;12.30;10.00;;;;;;;;;;5115732;27;20095;-74
2022/09/06 07:17:21;;;;;;;11.40;9.20;;;;;;;;;;5116838;27;20038;-77
2022/09/06 07:19:47;;;;;;;8.57;6.78;;;;;;;;;;5117383;27;20479;-76
2022/09/06 07:22:12;;;;;;;11.02;8.15;;;;;;;;;;5116820;27;20031;-76
2022/09/06 07:24:38;;;;;;;14.23;7.43;;;;;;;;;;5118556;27;20509;-76
2022/09/06 07:27:03;;;;;;;8.98;8.07;;;;;;;;;;5116992;28;20023;-74
2022/09/06 07:29:29;;;;;;;10.77;7.32;;;;;;;;;;5118662;28;20023;-75
2022/09/06 07:31:56;;;;;;;8.48;7.60;;;;;;;;;;5117632;28;20454;-74
2022/09/06 07:34:24;;;;;;;9.40;7.75;;;;;;;;;;5118085;28;20106;-76
2022/09/06 07:36:52;;;;;;;8.27;7.07;;;;;;;;;;5116502;28;20030;-76
2022/09/06 07:39:18;;;;;;;7.93;5.95;;;;;;;;;;5118021;28;20449;-76
2022/09/06 07:41:43;;;;;;;6.50;5.90;;;;;;;;;;5117889;27;20027;-75
2022/09/06 07:44:09;;;;;;;6.63;6.03;;;;;;;;;;5123073;27;20034;-76
2022/09/06 07:46:34;;;;;;;7.75;5.78;;;;;;;;;;5124608;27;20446;-77
2022/09/06 07:49:02;;;;;;;7.50;5.60;;;;;;;;;;5124014;27;20029;-75
2022/09/06 07:51:28;;;;;;;7.72;6.10;;;;;;;;;;5121805;27;20027;-76
2022/09/06 07:53:56;;;;;;;6.75;6.07;;;;;;;;;;5122665;27;20041;-77
2022/09/06 07:56:22;;;;;;;7.22;5.65;;;;;;;;;;5122923;27;20058;-76
2022/09/06 07:58:48;;;;;;;6.80;6.18;;;;;;;;;;5124334;27;20569;-78
2022/09/06 08:01:19;;;;;;;7.47;6.40;;;;;;;;;;5121789;27;20031;-77
2022/09/06 08:03:45;;;;;;;5.97;5.47;;;;;;;;;;5123785;27;20377;-78
2022/09/06 08:06:11;;;;;;;5.75;5.28;;;;;;;;;;5122376;27;20038;-78
2022/09/06 08:08:36;;;;;;;5.75;5.25;;;;;;;;;;5119993;27;20512;-78
2022/09/06 08:11:02;;;;;;;5.53;5.03;;;;;;;;;;5122537;27;20031;-76
2022/09/06 08:13:27;;;;;;;6.13;5.63;;;;;;;;;;5124424;27;20038;-76
2022/09/06 08:16:03;;;;;;;5.90;5.40;;;;;;;;;;5123606;27;20027;-75
2022/09/06 08:18:28;;;;;;;5.97;5.43;;;;;;;;;;5119080;27;20110;-77
2022/09/06 08:20:54;;;;;;;8.52;5.40;;;;;;;;;;5119195;27;20152;-74
2022/09/06 08:23:19;;;;;;;5.82;5.15;;;;;;;;;;5120408;27;20041;-76
2022/09/06 08:25:54;;;;;;;8.15;5.32;;;;;;;;;;5121100;27;20054;-75
2022/09/06 08:28:19;;;;;;;5.88;4.90;;;;;;;;;;5121428;27;20027;-75
2022/09/06 08:30:44;;;;;;;5.60;4.90;;;;;;;;;;5118509;27;20092;-77
2022/09/06 08:33:10;;;;;;;11.32;5.32;;;;;;;;;;5120728;27;20511;-77
2022/09/06 08:35:35;;;;;;;6.05;4.88;;;;;;;;;;5120602;27;20024;-76
2022/09/06 08:38:00;;;;;;;6.60;4.50;;;;;;;;;;5084688;27;20118;-76
2022/09/06 08:40:26;;;;;;;5.15;4.75;;;;;;;;;;5118717;27;20047;-76
2022/09/06 08:42:51;;;;;;;5.20;4.80;;;;;;;;;;5120772;27;20095;-76
2022/09/06 08:45:18;;;;;;;5.22;4.82;;;;;;;;;;5119867;27;20109;-77
2022/09/06 08:47:44;;;;;;;5.50;4.60;;;;;;;;;;5115323;27;20037;-76
2022/09/06 08:50:10;;;;;;;5.20;4.70;;;;;;;;;;5102721;27;20031;-77
2022/09/06 08:52:54;;;;;;;6.63;4.20;;;;;;;;;;5121467;27;20065;-75
2022/09/06 08:55:20;;;;;;;4.63;4.25;;;;;;;;;;5118672;27;20020;-75
2022/09/06 08:57:56;;;;;;;8.45;5.30;;;;;;;;;;5104223;27;20023;-76
2022/09/06 09:00:22;;;;;;;4.82;4.20;;;;;;;;;;5120329;27;20031;-75
2022/09/06 09:02:54;;;;;;;5.13;4.45;;;;;;;;;;5119782;27;20030;-78
2022/09/06 09:05:19;;;;;;;5.15;4.38;;;;;;;;;;5097755;27;20084;-78
2022/09/06 09:07:50;;;;;;;5.07;4.30;;;;;;;;;;5110487;27;20030;-76
2022/09/06 09:10:20;;;;;;;4.45;4.00;;;;;;;;;;5119056;27;20482;-76
2022/09/06 09:12:47;;;;;;;5.35;4.85;;;;;;;;;;5119817;27;20073;-76
2022/09/06 09:15:13;;;;;;;5.88;4.35;;;;;;;;;;5120094;27;20736;-75
2022/09/06 09:17:39;;;;;;;6.05;5.18;;;;;;;;;;5119837;27;20025;-76
2022/09/06 09:20:07;;;;;;;4.82;4.43;;;;;;;;;;5119948;27;20024;-76
2022/09/06 09:22:32;;;;;;;4.03;3.72;;;;;;;;;;5118562;27;20386;-74
2022/09/06 09:24:58;;;;;;;4.88;3.72;;;;;;;;;;5119535;27;20030;-77
2022/09/06 09:27:25;;;;;;;4.93;3.42;;;;;;;;;;5120676;27;20038;-77
2022/09/06 09:29:54;;;;;;;9.70;8.73;;;;;;;;;;5119967;27;20084;-76
2022/09/06 09:32:36;;;;;;;5.30;4.13;;;;;;;;;;5119791;27;20039;-77
2022/09/06 09:35:19;;;;;;;3.80;3.50;;;;;;;;;;5119338;27;20450;-77
2022/09/06 09:37:45;;;;;;;3.55;3.25;;;;;;;;;;5119345;27;20465;-76
2022/09/06 09:40:23;;;;;;;5.70;5.10;;;;;;;;;;5118043;27;20059;-77
2022/09/06 09:42:48;;;;;;;5.95;4.20;;;;;;;;;;5120611;27;20066;-77
2022/09/06 09:45:20;;;;;;;4.85;3.92;;;;;;;;;;5120382;27;20034;-79
2022/09/06 09:47:45;;;;;;;3.65;3.33;;;;;;;;;;5117925;27;20032;-76
2022/09/06 09:50:30;;;;;;;4.10;3.70;;;;;;;;;;5116875;27;20468;-77
2022/09/06 09:53:05;;;;;;;3.75;3.30;;;;;;;;;;5101575;27;20026;-76
2022/09/06 09:55:31;;;;;;;5.07;4.57;;;;;;;;;;5121855;27;20050;-76
2022/09/06 09:57:56;;;;;;;3.47;3.17;;;;;;;;;;5121911;27;20054;-78
2022/09/06 10:00:38;;;;;;;3.60;3.30;;;;;;;;;;5119967;27;20060;-75
2022/09/06 10:03:18;;;;;;;4.43;3.55;;;;;;;;;;5119510;27;20030;-77
2022/09/06 10:05:54;;;;;;;6.95;6.35;;;;;;;;;;5118520;27;20341;-77
2022/09/06 10:08:20;;;;;;;5.28;3.90;;;;;;;;;;5120263;27;20027;-76
2022/09/06 10:10:46;;;;;;;3.90;3.55;;;;;;;;;;5120326;27;20106;-76
2022/09/06 10:13:20;;;;;;;4.00;3.70;;;;;;;;;;5120470;27;20434;-76
2022/09/06 10:15:46;;;;;;;9.82;7.90;;;;;;;;;;5117707;27;20033;-78
2022/09/06 10:18:17;;;;;;;4.40;4.00;;;;;;;;;;5118873;27;20019;-76
2022/09/06 10:20:46;;;;;;;4.43;3.78;;;;;;;;;;5103292;27;20027;-76
2022/09/06 10:23:18;;;;;;;3.70;3.40;;;;;;;;;;5115821;27;20046;-76
2022/09/06 10:25:44;;;;;;;3.83;3.50;;;;;;;;;;5119895;27;20019;-78
2022/09/06 10:28:12;;;;;;;3.40;3.10;;;;;;;;;;5120350;27;20100;-77
2022/09/06 10:30:58;;;;;;;3.53;3.22;;;;;;;;;;5119110;27;20034;-77
2022/09/06 10:33:23;;;;;;;2.90;2.70;;;;;;;;;;5068038;27;20064;-77
2022/09/06 10:35:49;;;;;;;3.60;3.28;;;;;;;;;;5102034;27;20118;-76
2022/09/06 10:38:20;;;;;;;4.22;3.80;;;;;;;;;;5121498;27;20168;-77
2022/09/06 10:41:04;;;;;;;3.58;3.35;;;;;;;;;;5120080;27;20031;-77
2022/09/06 10:43:34;;;;;;;4.93;4.35;;;;;;;;;;5115580;27;20117;-75
2022/09/06 10:46:08;;;;;;;4.95;3.05;;;;;;;;;;5118649;27;20037;-78
2022/09/06 10:48:45;;;;;;;4.15;3.10;;;;;;;;;;5118358;27;20023;-78
2022/09/06 10:51:24;;;;;;;3.75;3.10;;;;;;;;;;5118650;27;20038;-77
2022/09/06 10:53:49;;;;;;;;;;;;;;;;;;5100411;27;20023;-76
2022/09/06 10:56:38;;;;;;;3.10;2.80;;;;;;;;;;5115654;27;19939;-77
2022/09/06 10:59:15;;;;;;;4.80;4.40;;;;;;;;;;5103896;27;20374;-78
2022/09/06 11:01:43;;;;;;;10.50;7.60;;;;;;;;;;5118258;27;20083;-80
2022/09/06 11:04:10;;;;;;;5.18;4.70;;;;;;;;;;5120764;27;20483;-79
2022/09/06 11:06:41;;;;;;;3.10;2.90;;;;;;;;;;5120561;27;20023;-78
2022/09/06 11:09:23;;;;;;;3.15;2.85;;;;;;;;;;5119298;27;20034;-78
2022/09/06 11:11:52;;;;;;;3.42;3.20;;;;;;;;;;5119218;27;20034;-80
2022/09/06 11:14:19;;;;;;;3.63;3.33;;;;;;;;;;5117724;27;20027;-83
2022/09/06 11:16:48;;;;;;;3.65;3.17;;;;;;;;;;5119781;27;20038;-78
2022/09/06 11:19:29;;;;;;;2.72;2.53;;;;;;;;;;5117043;27;20098;-79
2022/09/06 11:22:03;;;;;;;2.83;2.58;;;;;;;;;;5117387;27;20035;-77
2022/09/06 11:24:43;;;;;;;3.15;2.75;;;;;;;;;;5118265;27;20034;-78
2022/09/06 11:27:28;;;;;;;3.63;2.90;;;;;;;;;;5099501;28;20112;-79
2022/09/06 11:29:55;;;;;;;3.33;2.83;;;;;;;;;;5119602;28;20331;-77
2022/09/06 11:32:31;;;;;;;3.05;2.85;;;;;;;;;;5117868;28;20035;-76
2022/09/06 11:34:58;;;;;;;7.28;3.20;;;;;;;;;;5119317;28;20031;-78
2022/09/06 11:37:26;;;;;;;3.90;3.60;;;;;;;;;;5117701;28;20042;-77
2022/09/06 11:40:10;;;;;;;3.00;2.80;;;;;;;;;;5117382;28;20405;-78
2022/09/06 11:42:44;;;;;;;2.75;2.55;;;;;;;;;;5117605;28;20043;-76
2022/09/06 11:45:09;;;;;;;4.35;3.50;;;;;;;;;;5119386;28;20076;-78
2022/09/06 11:47:36;;;;;;;3.58;2.88;;;;;;;;;;5118370;28;20039;-79
2022/09/06 11:50:37;;;;;;;6.75;3.28;;;;;;;;;;5118605;28;20123;-78
2022/09/06 11:53:05;;;;;;;5.28;3.10;;;;;;;;;;5072649;28;20068;-77
2022/09/06 11:55:43;;;;;;;2.97;2.58;;;;;;;;;;5105441;28;20042;-77
2022/09/06 11:58:17;;;;;;;2.85;2.65;;;;;;;;;;5110387;28;20042;-75
2022/09/06 12:00:43;;;;;;;2.60;2.30;;;;;;;;;;5095846;28;20019;-77
2022/09/06 12:03:29;;;;;;;4.47;3.13;;;;;;;;;;5115616;28;20027;-75
2022/09/06 12:06:13;;;;;;;3.22;2.88;;;;;;;;;;5117668;28;20031;-77
2022/09/06 12:08:39;;;;;;;2.75;2.55;;;;;;;;;;5119990;28;20035;-78
2022/09/06 12:11:06;;;;;;;2.88;2.67;;;;;;;;;;5100501;28;22018;-77
2022/09/06 12:13:32;;;;;;;3.13;2.33;;;;;;;;;;5095690;28;20098;-76
2022/09/06 12:15:58;;;;;;;2.90;2.70;;;;;;;;;;5097296;28;20019;-78
2022/09/06 12:18:42;;;;;;;2.88;2.67;;;;;;;;;;5099889;28;20023;-77
2022/09/06 12:21:08;;;;;;;3.95;2.78;;;;;;;;;;5109250;28;20083;-77
2022/09/06 12:23:33;;;;;;;2.90;2.67;;;;;;;;;;5116745;28;20454;-77
2022/09/06 12:26:00;;;;;;;3.20;2.90;;;;;;;;;;5116183;28;20035;-74
2022/09/06 12:28:46;;;;;;;3.45;3.13;;;;;;;;;;5120316;27;20038;-77
2022/09/06 12:31:33;;;;;;;4.13;3.20;;;;;;;;;;5120808;27;20027;-80
2022/09/06 12:34:04;;;;;;;3.22;2.92;;;;;;;;;;5119085;27;20107;-76
2022/09/06 12:36:30;;;;;;;4.05;2.75;;;;;;;;;;5121130;27;20088;-76
2022/09/06 12:39:00;;;;;;;2.70;2.50;;;;;;;;;;5121382;27;20105;-78
2022/09/06 12:41:26;;;;;;;5.30;3.00;;;;;;;;;;5120353;27;20051;-76
2022/09/06 12:43:54;;;;;;;4.18;3.17;;;;;;;;;;5086357;27;20375;-76
2022/09/06 12:46:20;;;;;;;3.35;2.88;;;;;;;;;;5104656;27;20024;-76
2022/09/06 12:48:58;;;;;;;3.55;3.20;;;;;;;;;;5120809;27;20497;-79
2022/09/06 12:51:25;;;;;;;3.60;2.78;;;;;;;;;;5122471;27;20019;-77
2022/09/06 12:53:58;;;;;;;2.72;2.53;;;;;;;;;;5120124;27;20042;-77
2022/09/06 12:56:24;;;;;;;3.20;3.00;;;;;;;;;;5103868;27;20027;-79
2022/09/06 12:58:50;;;;;;;3.30;3.00;;;;;;;;;;5120645;27;20066;-77
2022/09/06 13:01:21;;;;;;;3.30;3.00;;;;;;;;;;5120158;27;20044;-77
2022/09/06 13:04:09;;;;;;;3.50;3.20;;;;;;;;;;5120166;27;20137;-76
2022/09/06 13:06:40;;;;;;;3.13;2.90;;;;;;;;;;5081539;27;20048;-80
2022/09/06 13:09:07;;;;;;;3.38;3.08;;;;;;;;;;5118254;27;20350;-78
2022/09/06 13:11:37;;;;;;;3.72;3.03;;;;;;;;;;5119190;27;20083;-77
2022/09/06 13:14:09;;;;;;;3.13;2.80;;;;;;;;;;5118785;27;20023;-79
2022/09/06 13:16:36;;;;;;;2.90;2.70;;;;;;;;;;5118907;27;20027;-76
2022/09/06 13:19:10;;;;;;;3.97;2.92;;;;;;;;;;5119452;27;20019;-78
2022/09/06 13:21:38;;;;;;;5.30;2.92;;;;;;;;;;5119489;27;20079;-77
2022/09/06 13:24:16;;;;;;;3.58;2.95;;;;;;;;;;5120496;27;20084;-77
2022/09/06 13:26:42;;;;;;;;;;;;;;;;;;5114475;27;20092;-76
2022/09/06 13:29:10;;;;;;;4.37;3.10;;;;;;;;;;5023756;27;19936;-75
2022/09/06 13:31:35;;;;;;;2.97;2.78;;;;;;;;;;5039032;28;20032;-75
2022/09/06 13:34:01;;;;;;;2.80;2.60;;;;;;;;;;5042928;28;20039;-77
2022/09/06 13:36:29;;;;;;;4.40;3.08;;;;;;;;;;5040787;28;20110;-77
2022/09/06 13:38:55;;;;;;;3.00;2.80;;;;;;;;;;5042089;28;21084;-76
2022/09/06 13:41:23;;;;;;;2.80;2.60;;;;;;;;;;5041867;28;20044;-77
2022/09/06 13:43:56;;;;;;;3.30;3.00;;;;;;;;;;5040549;28;20491;-77
2022/09/06 13:46:21;;;;;;;3.30;2.60;;;;;;;;;;5041128;28;20047;-78
2022/09/06 13:48:46;;;;;;;3.33;3.08;;;;;;;;;;5040770;28;20033;-75
2022/09/06 13:51:12;;;;;;;3.03;2.80;;;;;;;;;;5037821;28;20017;-75
2022/09/06 13:53:37;;;;;;;2.85;2.65;;;;;;;;;;5039382;28;20020;-74
2022/09/06 13:56:03;;;;;;;3.88;2.88;;;;;;;;;;5055821;28;20029;-76
2022/09/06 13:58:29;;;;;;;2.85;2.65;;;;;;;;;;5055160;28;20024;-74
2022/09/06 14:00:54;;;;;;;3.05;2.83;;;;;;;;;;5044655;28;20399;-75
2022/09/06 14:03:21;;;;;;;4.45;3.00;;;;;;;;;;5051130;28;20055;-78
2022/09/06 14:05:47;;;;;;;2.65;2.45;;;;;;;;;;5050658;28;20032;-74
2022/09/06 14:08:12;;;;;;;4.07;2.72;;;;;;;;;;5049722;28;20036;-75
2022/09/06 14:10:38;;;;;;;3.25;2.85;;;;;;;;;;5055300;28;20435;-79
2022/09/06 14:13:03;;;;;;;3.00;2.65;;;;;;;;;;5042850;28;20028;-76
2022/09/06 14:15:28;;;;;;;2.70;2.50;;;;;;;;;;5039071;28;20445;-75
2022/09/06 14:17:54;;;;;;;2.90;2.47;;;;;;;;;;5038359;28;20507;-78
2022/09/06 14:20:19;;;;;;;3.97;2.65;;;;;;;;;;5056425;28;20399;-77
2022/09/06 14:22:45;;;;;;;3.75;3.00;;;;;;;;;;5054254;28;20102;-78
2022/09/06 14:25:11;;;;;;;2.85;2.55;;;;;;;;;;5052101;28;20043;-79
2022/09/06 14:27:37;;;;;;;3.30;2.22;;;;;;;;;;5054640;28;20028;-76
2022/09/06 14:30:03;;;;;;;3.30;3.00;;;;;;;;;;5053882;28;20440;-76
2022/09/06 14:32:29;;;;;;;5.05;2.97;;;;;;;;;;5055177;28;20021;-77
2022/09/06 14:34:54;;;;;;;2.80;2.50;;;;;;;;;;5046325;28;20044;-76
2022/09/06 14:37:20;;;;;;;2.80;2.60;;;;;;;;;;5045077;28;20102;-79
2022/09/06 14:39:46;;;;;;;3.85;2.92;;;;;;;;;;5050042;28;20025;-80
2022/09/06 14:42:12;;;;;;;7.72;6.88;;;;;;;;;;5041836;28;20049;-75
2022/09/06 14:44:38;;;;;;;7.18;4.75;;;;;;;;;;5046627;28;20762;-75
2022/09/06 14:47:04;;;;;;;3.67;3.38;;;;;;;;;;5046253;28;20403;-76